Time;durP1;ratioP1;P1;durP2;ratioP2;P2;SDS_P1;SDS_P2;PMS_P1;PMS_P2;Temp;Humidity;BMP_temperature;BMP_pressure;BME280_temperature;BME280_humidity;BME280_pressure;Samples;Min_cycle;Max_cycle;Signal;HPM_P1;HPM_P2
2022/03/15 00:00:16;;;;;;;553.65;501.27;;;;;;;;;;;;;-58
2022/03/15 00:03:15;;;;;;;557.63;505.07;;;;;;;;;;;;;-58
2022/03/15 00:06:16;;;;;;;556.79;504.17;;;;;;;;;;;;;-59
2022/03/15 00:09:16;;;;;;;555.71;503.23;;;;;;;;;;;;;-59
2022/03/15 00:12:15;;;;;;;557.43;504.87;;;;;;;;;;;;;-59
2022/03/15 00:15:15;;;;;;;556.46;503.87;;;;;;;;;;;;;-59
2022/03/15 00:18:16;;;;;;;554.47;502.09;;;;;;;;;;;;;-59
2022/03/15 00:21:18;;;;;;;553.69;501.32;;;;;;;;;;;;;-58
2022/03/15 00:24:15;;;;;;;552.83;500.44;;;;;;;;;;;;;-58
2022/03/15 00:27:16;;;;;;;550.49;498.26;;;;;;;;;;;;;-59
2022/03/15 00:30:16;;;;;;;550.55;498.28;;;;;;;;;;;;;-59
2022/03/15 00:33:16;;;;;;;550.05;497.91;;;;;;;;;;;;;-58
2022/03/15 00:36:16;;;;;;;548.57;496.47;;;;;;;;;;;;;-59
2022/03/15 00:39:16;;;;;;;554.37;502.07;;;;;;;;;;;;;-58
2022/03/15 00:42:15;;;;;;;549.55;497.57;;;;;;;;;;;;;-58
2022/03/15 00:45:15;;;;;;;547.87;495.69;;;;;;;;;;;;;-59
2022/03/15 00:48:16;;;;;;;552.95;500.51;;;;;;;;;;;;;-59
2022/03/15 00:51:16;;;;;;;553.02;500.65;;;;;;;;;;;;;-58
2022/03/15 00:54:15;;;;;;;549.77;497.45;;;;;;;;;;;;;-55
2022/03/15 00:57:15;;;;;;;554.74;502.13;;;;;;;;;;;;;-54
2022/03/15 01:00:16;;;;;;;551.15;498.97;;;;;;;;;;;;;-54
2022/03/15 01:03:15;;;;;;;548.86;496.54;;;;;;;;;;;;;-55
2022/03/15 01:06:16;;;;;;;552.27;499.93;;;;;;;;;;;;;-55
2022/03/15 01:09:15;;;;;;;547.32;495.12;;;;;;;;;;;;;-56
2022/03/15 01:12:16;;;;;;;547.71;495.55;;;;;;;;;;;;;-55
2022/03/15 01:15:16;;;;;;;544.35;492.37;;;;;;;;;;;;;-54
2022/03/15 01:18:15;;;;;;;541.81;489.91;;;;;;;;;;;;;-58
2022/03/15 01:21:16;;;;;;;546.39;494.23;;;;;;;;;;;;;-58
2022/03/15 01:24:15;;;;;;;547.43;495.30;;;;;;;;;;;;;-59
2022/03/15 01:27:17;;;;;;;541.73;489.85;;;;;;;;;;;;;-59
2022/03/15 01:30:16;;;;;;;543.43;491.50;;;;;;;;;;;;;-59
2022/03/15 01:33:16;;;;;;;544.06;492.23;;;;;;;;;;;;;-58
2022/03/15 01:36:15;;;;;;;543.57;491.64;;;;;;;;;;;;;-59
2022/03/15 01:39:15;;;;;;;543.58;491.79;;;;;;;;;;;;;-59
2022/03/15 01:42:16;;;;;;;541.74;490.00;;;;;;;;;;;;;-57
2022/03/15 01:45:16;;;;;;;539.67;488.03;;;;;;;;;;;;;-57
2022/03/15 01:48:15;;;;;;;539.31;487.65;;;;;;;;;;;;;-59
2022/03/15 01:51:16;;;;;;;537.47;485.81;;;;;;;;;;;;;-59
2022/03/15 01:54:16;;;;;;;539.42;487.76;;;;;;;;;;;;;-59
2022/03/15 01:57:16;;;;;;;536.88;485.47;;;;;;;;;;;;;-59
2022/03/15 02:00:15;;;;;;;538.39;486.99;;;;;;;;;;;;;-58
2022/03/15 02:03:16;;;;;;;534.64;483.21;;;;;;;;;;;;;-59
2022/03/15 02:06:15;;;;;;;536.63;485.14;;;;;;;;;;;;;-59
2022/03/15 02:09:16;;;;;;;534.95;483.64;;;;;;;;;;;;;-59
2022/03/15 02:12:16;;;;;;;539.23;487.49;;;;;;;;;;;;;-59
2022/03/15 02:15:16;;;;;;;540.21;488.48;;;;;;;;;;;;;-59
2022/03/15 02:18:18;;;;;;;538.06;486.51;;;;;;;;;;;;;-59
2022/03/15 02:21:16;;;;;;;536.03;484.50;;;;;;;;;;;;;-59
2022/03/15 02:24:16;;;;;;;537.33;485.73;;;;;;;;;;;;;-57
2022/03/15 02:27:15;;;;;;;540.14;488.37;;;;;;;;;;;;;-59
2022/03/15 02:30:15;;;;;;;538.72;487.07;;;;;;;;;;;;;-58
2022/03/15 02:33:15;;;;;;;537.97;486.41;;;;;;;;;;;;;-59
2022/03/15 02:36:16;;;;;;;536.77;485.10;;;;;;;;;;;;;-58
2022/03/15 02:39:16;;;;;;;536.51;484.96;;;;;;;;;;;;;-58
2022/03/15 02:42:15;;;;;;;534.45;482.99;;;;;;;;;;;;;-59
2022/03/15 02:45:16;;;;;;;532.77;481.29;;;;;;;;;;;;;-58
2022/03/15 02:48:15;;;;;;;530.81;479.52;;;;;;;;;;;;;-59
2022/03/15 02:51:15;;;;;;;531.00;479.59;;;;;;;;;;;;;-55
2022/03/15 02:54:16;;;;;;;527.81;476.67;;;;;;;;;;;;;-55
2022/03/15 02:57:21;;;;;;;527.17;476.01;;;;;;;;;;;;;-58
2022/03/15 03:00:17;;;;;;;524.27;473.35;;;;;;;;;;;;;-59
2022/03/15 03:03:15;;;;;;;529.92;478.67;;;;;;;;;;;;;-59
2022/03/15 03:06:16;;;;;;;532.99;481.70;;;;;;;;;;;;;-59
2022/03/15 03:09:16;;;;;;;528.38;477.29;;;;;;;;;;;;;-59
2022/03/15 03:12:16;;;;;;;530.59;479.33;;;;;;;;;;;;;-59
2022/03/15 03:15:20;;;;;;;529.88;478.65;;;;;;;;;;;;;-59
2022/03/15 03:18:16;;;;;;;527.97;476.79;;;;;;;;;;;;;-59
2022/03/15 03:21:15;;;;;;;529.24;478.09;;;;;;;;;;;;;-59
2022/03/15 03:24:19;;;;;;;523.74;472.71;;;;;;;;;;;;;-58
2022/03/15 03:27:15;;;;;;;526.73;475.70;;;;;;;;;;;;;-58
2022/03/15 03:30:16;;;;;;;531.94;480.71;;;;;;;;;;;;;-59
2022/03/15 03:33:15;;;;;;;528.13;476.98;;;;;;;;;;;;;-59
2022/03/15 03:36:16;;;;;;;525.37;474.29;;;;;;;;;;;;;-59
2022/03/15 03:39:16;;;;;;;527.40;476.19;;;;;;;;;;;;;-59
2022/03/15 03:42:16;;;;;;;530.57;479.03;;;;;;;;;;;;;-59
2022/03/15 03:45:15;;;;;;;527.92;476.61;;;;;;;;;;;;;-55
2022/03/15 03:48:15;;;;;;;525.60;474.49;;;;;;;;;;;;;-56
2022/03/15 03:51:16;;;;;;;527.39;476.15;;;;;;;;;;;;;-55
2022/03/15 03:54:15;;;;;;;527.77;476.51;;;;;;;;;;;;;-56
2022/03/15 03:57:15;;;;;;;524.00;472.99;;;;;;;;;;;;;-59
2022/03/15 04:00:16;;;;;;;525.57;474.62;;;;;;;;;;;;;-59
2022/03/15 04:03:17;;;;;;;525.24;474.24;;;;;;;;;;;;;-58
2022/03/15 04:06:15;;;;;;;521.29;470.26;;;;;;;;;;;;;-58
2022/03/15 04:09:16;;;;;;;523.82;472.75;;;;;;;;;;;;;-58
2022/03/15 04:12:16;;;;;;;521.09;470.25;;;;;;;;;;;;;-57
2022/03/15 04:15:16;;;;;;;522.57;471.62;;;;;;;;;;;;;-55
2022/03/15 04:18:15;;;;;;;521.35;470.44;;;;;;;;;;;;;-55
2022/03/15 04:21:16;;;;;;;524.15;473.02;;;;;;;;;;;;;-55
2022/03/15 04:24:17;;;;;;;525.03;473.91;;;;;;;;;;;;;-55
2022/03/15 04:27:16;;;;;;;526.07;474.85;;;;;;;;;;;;;-55
2022/03/15 04:30:17;;;;;;;523.89;472.77;;;;;;;;;;;;;-54
2022/03/15 04:33:16;;;;;;;523.98;472.76;;;;;;;;;;;;;-55
2022/03/15 04:36:16;;;;;;;524.83;473.67;;;;;;;;;;;;;-55
2022/03/15 04:39:15;;;;;;;523.65;472.55;;;;;;;;;;;;;-58
2022/03/15 04:42:16;;;;;;;524.12;472.87;;;;;;;;;;;;;-58
2022/03/15 04:45:16;;;;;;;520.57;469.55;;;;;;;;;;;;;-58
2022/03/15 04:48:16;;;;;;;523.67;472.45;;;;;;;;;;;;;-56
2022/03/15 04:51:15;;;;;;;520.93;469.88;;;;;;;;;;;;;-56
2022/03/15 04:54:16;;;;;;;522.62;471.56;;;;;;;;;;;;;-56
2022/03/15 04:57:16;;;;;;;523.69;472.60;;;;;;;;;;;;;-55
2022/03/15 05:00:15;;;;;;;519.63;468.71;;;;;;;;;;;;;-56
2022/03/15 05:03:17;;;;;;;520.57;469.51;;;;;;;;;;;;;-54
2022/03/15 05:06:16;;;;;;;518.68;467.94;;;;;;;;;;;;;-56
2022/03/15 05:09:15;;;;;;;517.21;466.45;;;;;;;;;;;;;-55
2022/03/15 05:12:16;;;;;;;515.96;465.24;;;;;;;;;;;;;-55
2022/03/15 05:15:15;;;;;;;515.43;464.75;;;;;;;;;;;;;-59
2022/03/15 05:18:16;;;;;;;516.21;465.47;;;;;;;;;;;;;-55
2022/03/15 05:21:16;;;;;;;513.90;463.23;;;;;;;;;;;;;-56
2022/03/15 05:24:16;;;;;;;518.31;467.65;;;;;;;;;;;;;-58
2022/03/15 05:27:16;;;;;;;514.73;464.09;;;;;;;;;;;;;-59
2022/03/15 05:30:17;;;;;;;516.41;465.63;;;;;;;;;;;;;-57
2022/03/15 05:33:15;;;;;;;515.57;464.92;;;;;;;;;;;;;-58
2022/03/15 05:36:16;;;;;;;515.63;464.85;;;;;;;;;;;;;-58
2022/03/15 05:39:15;;;;;;;516.55;465.81;;;;;;;;;;;;;-57
2022/03/15 05:42:17;;;;;;;512.76;462.11;;;;;;;;;;;;;-58
2022/03/15 05:45:15;;;;;;;510.05;459.61;;;;;;;;;;;;;-57
2022/03/15 05:48:15;;;;;;;510.60;460.17;;;;;;;;;;;;;-57
2022/03/15 05:51:15;;;;;;;512.93;462.31;;;;;;;;;;;;;-59
2022/03/15 05:54:15;;;;;;;514.55;463.85;;;;;;;;;;;;;-59
2022/03/15 05:57:15;;;;;;;513.57;462.97;;;;;;;;;;;;;-58
2022/03/15 06:00:16;;;;;;;514.63;463.97;;;;;;;;;;;;;-58
2022/03/15 06:03:16;;;;;;;517.32;466.22;;;;;;;;;;;;;-59
2022/03/15 06:06:16;;;;;;;501.25;450.79;;;;;;;;;;;;;-63
2022/03/15 06:09:15;;;;;;;502.52;452.04;;;;;;;;;;;;;-61
2022/03/15 06:12:16;;;;;;;500.34;449.67;;;;;;;;;;;;;-58
2022/03/15 06:15:16;;;;;;;490.48;440.36;;;;;;;;;;;;;-55
2022/03/15 06:18:16;;;;;;;484.15;434.26;;;;;;;;;;;;;-55
2022/03/15 06:21:15;;;;;;;482.03;432.02;;;;;;;;;;;;;-56
2022/03/15 06:24:16;;;;;;;486.39;436.14;;;;;;;;;;;;;-54
2022/03/15 06:27:15;;;;;;;492.09;442.11;;;;;;;;;;;;;-62
2022/03/15 06:30:16;;;;;;;494.55;444.53;;;;;;;;;;;;;-57
2022/03/15 06:33:15;;;;;;;495.82;445.76;;;;;;;;;;;;;-63
2022/03/15 06:36:16;;;;;;;496.11;446.14;;;;;;;;;;;;;-59
2022/03/15 06:39:15;;;;;;;501.52;451.22;;;;;;;;;;;;;-55
2022/03/15 06:42:16;;;;;;;506.13;455.67;;;;;;;;;;;;;-52
2022/03/15 06:45:16;;;;;;;502.80;452.65;;;;;;;;;;;;;-52
2022/03/15 06:48:15;;;;;;;506.08;455.79;;;;;;;;;;;;;-55
2022/03/15 06:51:15;;;;;;;514.57;463.89;;;;;;;;;;;;;-55
2022/03/15 06:54:15;;;;;;;507.60;457.21;;;;;;;;;;;;;-55
2022/03/15 06:57:16;;;;;;;507.98;457.66;;;;;;;;;;;;;-55
2022/03/15 07:00:15;;;;;;;508.79;458.43;;;;;;;;;;;;;-57
2022/03/15 07:03:15;;;;;;;512.85;462.38;;;;;;;;;;;;;-58
2022/03/15 07:06:15;;;;;;;511.17;460.71;;;;;;;;;;;;;-55
2022/03/15 07:09:16;;;;;;;513.44;462.96;;;;;;;;;;;;;-58
2022/03/15 07:12:15;;;;;;;508.77;458.36;;;;;;;;;;;;;-60
2022/03/15 07:15:17;;;;;;;515.11;464.11;;;;;;;;;;;;;-60
2022/03/15 07:18:18;;;;;;;513.35;462.51;;;;;;;;;;;;;-55
2022/03/15 07:21:15;;;;;;;510.85;460.34;;;;;;;;;;;;;-53
2022/03/15 07:24:16;;;;;;;510.04;459.59;;;;;;;;;;;;;-54
2022/03/15 07:27:15;;;;;;;516.11;465.27;;;;;;;;;;;;;-58
2022/03/15 07:30:16;;;;;;;512.33;461.84;;;;;;;;;;;;;-54
2022/03/15 07:33:15;;;;;;;508.77;458.43;;;;;;;;;;;;;-52
2022/03/15 07:36:17;;;;;;;503.06;452.97;;;;;;;;;;;;;-53
2022/03/15 07:39:15;;;;;;;508.27;457.91;;;;;;;;;;;;;-53
2022/03/15 07:42:15;;;;;;;515.13;464.60;;;;;;;;;;;;;-57
2022/03/15 07:45:15;;;;;;;516.98;466.34;;;;;;;;;;;;;-52
2022/03/15 07:48:15;;;;;;;513.43;462.99;;;;;;;;;;;;;-53
2022/03/15 07:51:16;;;;;;;514.63;463.87;;;;;;;;;;;;;-60
2022/03/15 07:54:15;;;;;;;513.95;463.19;;;;;;;;;;;;;-54
2022/03/15 07:57:15;;;;;;;509.79;459.44;;;;;;;;;;;;;-54
2022/03/15 08:00:15;;;;;;;512.43;461.81;;;;;;;;;;;;;-58
2022/03/15 08:03:15;;;;;;;514.39;463.89;;;;;;;;;;;;;-57
2022/03/15 08:06:15;;;;;;;513.83;463.55;;;;;;;;;;;;;-60
2022/03/15 08:09:16;;;;;;;517.24;466.59;;;;;;;;;;;;;-59
2022/03/15 08:12:17;;;;;;;518.07;467.47;;;;;;;;;;;;;-60
2022/03/15 08:15:15;;;;;;;520.75;470.02;;;;;;;;;;;;;-59
2022/03/15 08:18:15;;;;;;;515.71;465.21;;;;;;;;;;;;;-58
2022/03/15 08:21:16;;;;;;;515.90;465.33;;;;;;;;;;;;;-58
2022/03/15 08:24:17;;;;;;;515.20;464.76;;;;;;;;;;;;;-58
2022/03/15 08:27:15;;;;;;;517.41;466.90;;;;;;;;;;;;;-59
2022/03/15 08:30:15;;;;;;;516.48;465.97;;;;;;;;;;;;;-54
2022/03/15 08:33:16;;;;;;;522.91;472.14;;;;;;;;;;;;;-53
2022/03/15 08:36:17;;;;;;;518.29;467.84;;;;;;;;;;;;;-54
2022/03/15 08:39:16;;;;;;;519.53;468.93;;;;;;;;;;;;;-58
2022/03/15 08:42:15;;;;;;;518.01;466.49;;;;;;;;;;;;;-58
2022/03/15 08:45:15;;;;;;;513.63;463.13;;;;;;;;;;;;;-58
2022/03/15 08:48:15;;;;;;;519.86;469.11;;;;;;;;;;;;;-57
2022/03/15 08:51:15;;;;;;;516.42;465.29;;;;;;;;;;;;;-67
2022/03/15 08:54:16;;;;;;;521.19;470.28;;;;;;;;;;;;;-54
2022/03/15 08:57:17;;;;;;;523.86;472.87;;;;;;;;;;;;;-55
2022/03/15 09:00:15;;;;;;;515.47;464.82;;;;;;;;;;;;;-57
2022/03/15 09:03:15;;;;;;;519.14;467.83;;;;;;;;;;;;;-57
2022/03/15 09:06:16;;;;;;;525.83;474.70;;;;;;;;;;;;;-57
2022/03/15 09:09:18;;;;;;;528.46;477.28;;;;;;;;;;;;;-57
2022/03/15 09:12:16;;;;;;;526.73;475.58;;;;;;;;;;;;;-58
2022/03/15 09:15:15;;;;;;;530.13;479.01;;;;;;;;;;;;;-52
2022/03/15 09:18:16;;;;;;;527.69;476.63;;;;;;;;;;;;;-63
2022/03/15 09:21:15;;;;;;;532.70;481.45;;;;;;;;;;;;;-64
2022/03/15 09:24:15;;;;;;;536.91;485.33;;;;;;;;;;;;;-54
2022/03/15 09:27:15;;;;;;;535.68;484.30;;;;;;;;;;;;;-54
2022/03/15 09:30:15;;;;;;;538.27;486.93;;;;;;;;;;;;;-54
2022/03/15 09:33:15;;;;;;;541.35;489.75;;;;;;;;;;;;;-58
2022/03/15 09:36:15;;;;;;;544.57;492.97;;;;;;;;;;;;;-58
2022/03/15 09:39:16;;;;;;;545.59;493.89;;;;;;;;;;;;;-51
2022/03/15 09:42:15;;;;;;;549.67;498.06;;;;;;;;;;;;;-51
2022/03/15 09:45:15;;;;;;;546.97;495.43;;;;;;;;;;;;;-51
2022/03/15 09:48:15;;;;;;;548.32;496.56;;;;;;;;;;;;;-57
2022/03/15 09:51:16;;;;;;;548.69;497.01;;;;;;;;;;;;;-55
2022/03/15 09:54:17;;;;;;;550.77;499.01;;;;;;;;;;;;;-55
2022/03/15 09:57:15;;;;;;;549.91;497.95;;;;;;;;;;;;;-53
2022/03/15 10:00:16;;;;;;;546.56;495.05;;;;;;;;;;;;;-58
2022/03/15 10:03:16;;;;;;;552.34;500.50;;;;;;;;;;;;;-59
2022/03/15 10:06:15;;;;;;;557.17;505.33;;;;;;;;;;;;;-58
2022/03/15 10:09:15;;;;;;;557.59;505.55;;;;;;;;;;;;;-56
2022/03/15 10:12:15;;;;;;;558.52;506.17;;;;;;;;;;;;;-53
2022/03/15 10:15:25;;;;;;;559.78;507.20;;;;;;;;;;;;;-58
2022/03/15 10:18:15;;;;;;;558.95;506.45;;;;;;;;;;;;;-53
2022/03/15 10:21:15;;;;;;;561.61;509.26;;;;;;;;;;;;;-53
2022/03/15 10:24:17;;;;;;;565.13;512.40;;;;;;;;;;;;;-52
2022/03/15 10:27:15;;;;;;;567.10;514.13;;;;;;;;;;;;;-53
2022/03/15 10:30:16;;;;;;;567.45;514.63;;;;;;;;;;;;;-54
2022/03/15 10:33:15;;;;;;;566.66;514.12;;;;;;;;;;;;;-53
2022/03/15 10:36:16;;;;;;;567.69;514.98;;;;;;;;;;;;;-57
2022/03/15 10:39:15;;;;;;;565.56;512.93;;;;;;;;;;;;;-61
2022/03/15 10:42:15;;;;;;;570.77;517.79;;;;;;;;;;;;;-61
2022/03/15 10:45:15;;;;;;;572.63;519.70;;;;;;;;;;;;;-58
2022/03/15 10:48:15;;;;;;;570.77;518.05;;;;;;;;;;;;;-53
2022/03/15 10:51:16;;;;;;;575.17;522.27;;;;;;;;;;;;;-53
2022/03/15 10:54:15;;;;;;;577.05;523.72;;;;;;;;;;;;;-58
2022/03/15 10:57:15;;;;;;;582.30;528.95;;;;;;;;;;;;;-57
2022/03/15 11:00:16;;;;;;;583.61;530.42;;;;;;;;;;;;;-53
2022/03/15 11:03:20;;;;;;;587.97;534.29;;;;;;;;;;;;;-52
2022/03/15 11:06:15;;;;;;;588.27;534.77;;;;;;;;;;;;;-53
2022/03/15 11:09:15;;;;;;;587.65;534.09;;;;;;;;;;;;;-52
2022/03/15 11:12:17;;;;;;;591.82;538.03;;;;;;;;;;;;;-54
2022/03/15 11:15:16;;;;;;;589.63;536.03;;;;;;;;;;;;;-54
2022/03/15 11:18:16;;;;;;;589.49;535.93;;;;;;;;;;;;;-57
2022/03/15 11:21:17;;;;;;;591.35;537.49;;;;;;;;;;;;;-54
2022/03/15 11:24:15;;;;;;;591.88;538.19;;;;;;;;;;;;;-56
2022/03/15 11:27:16;;;;;;;588.39;534.85;;;;;;;;;;;;;-51
2022/03/15 11:30:15;;;;;;;586.40;532.86;;;;;;;;;;;;;-56
2022/03/15 11:33:15;;;;;;;584.89;531.49;;;;;;;;;;;;;-56
2022/03/15 11:36:15;;;;;;;580.65;527.35;;;;;;;;;;;;;-55
2022/03/15 11:39:15;;;;;;;581.80;528.57;;;;;;;;;;;;;-55
2022/03/15 11:42:16;;;;;;;584.21;530.68;;;;;;;;;;;;;-56
2022/03/15 11:45:16;;;;;;;586.69;533.36;;;;;;;;;;;;;-54
2022/03/15 11:48:16;;;;;;;584.11;530.85;;;;;;;;;;;;;-54
2022/03/15 11:51:15;;;;;;;582.90;529.69;;;;;;;;;;;;;-51
2022/03/15 11:54:15;;;;;;;584.61;531.19;;;;;;;;;;;;;-52
2022/03/15 11:57:21;;;;;;;584.09;530.60;;;;;;;;;;;;;-53
2022/03/15 12:00:16;;;;;;;583.35;530.11;;;;;;;;;;;;;-51
2022/03/15 12:03:15;;;;;;;582.89;529.57;;;;;;;;;;;;;-51
2022/03/15 12:06:15;;;;;;;584.33;531.05;;;;;;;;;;;;;-51
2022/03/15 12:09:15;;;;;;;580.31;527.16;;;;;;;;;;;;;-57
2022/03/15 12:12:16;;;;;;;579.21;526.12;;;;;;;;;;;;;-58
2022/03/15 12:15:17;;;;;;;582.95;529.69;;;;;;;;;;;;;-57
2022/03/15 12:18:30;;;;;;;584.16;530.85;;;;;;;;;;;;;-58
2022/03/15 12:21:16;;;;;;;585.01;531.65;;;;;;;;;;;;;-58
2022/03/15 12:24:15;;;;;;;584.30;530.97;;;;;;;;;;;;;-56
2022/03/15 12:27:15;;;;;;;585.43;532.07;;;;;;;;;;;;;-56
2022/03/15 12:30:18;;;;;;;581.06;527.84;;;;;;;;;;;;;-56
2022/03/15 12:33:15;;;;;;;581.64;528.45;;;;;;;;;;;;;-57
2022/03/15 12:36:15;;;;;;;582.09;528.90;;;;;;;;;;;;;-57
2022/03/15 12:39:15;;;;;;;583.98;530.58;;;;;;;;;;;;;-58
2022/03/15 12:42:16;;;;;;;579.25;526.11;;;;;;;;;;;;;-54
2022/03/15 12:45:15;;;;;;;578.90;525.81;;;;;;;;;;;;;-54
2022/03/15 12:48:15;;;;;;;580.87;527.76;;;;;;;;;;;;;-58
2022/03/15 12:51:16;;;;;;;583.64;530.39;;;;;;;;;;;;;-56
2022/03/15 12:54:16;;;;;;;585.37;532.11;;;;;;;;;;;;;-56
2022/03/15 12:57:16;;;;;;;580.83;527.63;;;;;;;;;;;;;-53
2022/03/15 13:00:15;;;;;;;585.06;531.75;;;;;;;;;;;;;-55
2022/03/15 13:03:17;;;;;;;579.99;526.81;;;;;;;;;;;;;-54
2022/03/15 13:06:15;;;;;;;581.80;528.59;;;;;;;;;;;;;-56
2022/03/15 13:09:15;;;;;;;577.96;524.89;;;;;;;;;;;;;-58
2022/03/15 13:12:17;;;;;;;579.48;526.47;;;;;;;;;;;;;-47
2022/03/15 13:15:19;;;;;;;571.52;518.39;;;;;;;;;;;;;-57
2022/03/15 13:18:15;;;;;;;577.81;524.79;;;;;;;;;;;;;-51
2022/03/15 13:21:15;;;;;;;579.16;525.91;;;;;;;;;;;;;-57
2022/03/15 13:24:16;;;;;;;582.10;528.73;;;;;;;;;;;;;-56
2022/03/15 13:27:16;;;;;;;585.30;531.98;;;;;;;;;;;;;-58
2022/03/15 13:30:16;;;;;;;584.20;530.73;;;;;;;;;;;;;-53
2022/03/15 13:33:15;;;;;;;582.57;528.99;;;;;;;;;;;;;-64
2022/03/15 13:36:17;;;;;;;578.75;525.59;;;;;;;;;;;;;-54
2022/03/15 13:39:17;;;;;;;578.01;524.61;;;;;;;;;;;;;-51
2022/03/15 13:42:16;;;;;;;583.67;530.35;;;;;;;;;;;;;-61
2022/03/15 13:45:15;;;;;;;582.53;529.21;;;;;;;;;;;;;-55
2022/03/15 13:48:16;;;;;;;582.90;529.42;;;;;;;;;;;;;-63
2022/03/15 13:51:15;;;;;;;587.71;534.17;;;;;;;;;;;;;-56
2022/03/15 13:54:16;;;;;;;589.75;536.14;;;;;;;;;;;;;-57
2022/03/15 13:57:16;;;;;;;589.15;535.30;;;;;;;;;;;;;-56
2022/03/15 14:00:17;;;;;;;591.47;537.85;;;;;;;;;;;;;-57
2022/03/15 14:03:15;;;;;;;591.22;537.56;;;;;;;;;;;;;-53
2022/03/15 14:06:19;;;;;;;597.30;542.89;;;;;;;;;;;;;-43
2022/03/15 14:09:15;;;;;;;592.56;538.68;;;;;;;;;;;;;-54
2022/03/15 14:12:17;;;;;;;590.57;536.73;;;;;;;;;;;;;-52
2022/03/15 14:15:16;;;;;;;590.22;536.49;;;;;;;;;;;;;-55
2022/03/15 14:18:15;;;;;;;591.84;537.14;;;;;;;;;;;;;-60
2022/03/15 14:21:16;;;;;;;592.04;538.30;;;;;;;;;;;;;-57
2022/03/15 14:24:15;;;;;;;597.56;543.44;;;;;;;;;;;;;-56
2022/03/15 14:27:16;;;;;;;596.39;542.62;;;;;;;;;;;;;-57
2022/03/15 14:30:15;;;;;;;595.45;541.48;;;;;;;;;;;;;-59
2022/03/15 14:33:16;;;;;;;605.15;550.93;;;;;;;;;;;;;-52
2022/03/15 14:36:16;;;;;;;604.37;549.97;;;;;;;;;;;;;-53
2022/03/15 14:39:15;;;;;;;604.37;550.11;;;;;;;;;;;;;-57
2022/03/15 14:42:16;;;;;;;605.17;550.77;;;;;;;;;;;;;-56
2022/03/15 14:45:17;;;;;;;604.30;550.27;;;;;;;;;;;;;-61
2022/03/15 14:48:15;;;;;;;599.27;545.14;;;;;;;;;;;;;-57
2022/03/15 14:51:15;;;;;;;599.27;545.23;;;;;;;;;;;;;-60
2022/03/15 14:54:15;;;;;;;602.51;548.40;;;;;;;;;;;;;-61
2022/03/15 14:57:21;;;;;;;604.00;549.29;;;;;;;;;;;;;-56
2022/03/15 15:00:16;;;;;;;603.17;549.04;;;;;;;;;;;;;-58
2022/03/15 15:03:15;;;;;;;604.15;549.91;;;;;;;;;;;;;-57
2022/03/15 15:06:15;;;;;;;603.99;549.61;;;;;;;;;;;;;-59
2022/03/15 15:09:16;;;;;;;618.25;563.31;;;;;;;;;;;;;-60
2022/03/15 15:12:16;;;;;;;614.19;559.64;;;;;;;;;;;;;-54
2022/03/15 15:15:16;;;;;;;618.05;563.32;;;;;;;;;;;;;-52
2022/03/15 15:18:19;;;;;;;613.83;559.24;;;;;;;;;;;;;-60
2022/03/15 15:21:16;;;;;;;615.83;561.11;;;;;;;;;;;;;-53
2022/03/15 15:24:17;;;;;;;618.03;563.18;;;;;;;;;;;;;-54
2022/03/15 15:27:15;;;;;;;621.78;566.74;;;;;;;;;;;;;-49
2022/03/15 15:30:18;;;;;;;616.53;561.78;;;;;;;;;;;;;-58
2022/03/15 15:33:16;;;;;;;619.60;564.86;;;;;;;;;;;;;-53
2022/03/15 15:36:18;;;;;;;611.63;557.19;;;;;;;;;;;;;-59
2022/03/15 15:39:16;;;;;;;608.52;554.23;;;;;;;;;;;;;-50
2022/03/15 15:42:17;;;;;;;607.34;553.17;;;;;;;;;;;;;-58
2022/03/15 15:45:17;;;;;;;606.59;552.46;;;;;;;;;;;;;-58
2022/03/15 15:48:18;;;;;;;601.88;547.32;;;;;;;;;;;;;-61
2022/03/15 15:51:17;;;;;;;598.42;544.23;;;;;;;;;;;;;-57
2022/03/15 15:54:15;;;;;;;600.87;546.74;;;;;;;;;;;;;-56
2022/03/15 15:57:17;;;;;;;600.97;546.57;;;;;;;;;;;;;-55
2022/03/15 16:00:17;;;;;;;603.35;549.05;;;;;;;;;;;;;-55
2022/03/15 16:03:15;;;;;;;605.45;551.33;;;;;;;;;;;;;-58
2022/03/15 16:06:15;;;;;;;608.97;554.36;;;;;;;;;;;;;-53
2022/03/15 16:09:17;;;;;;;604.38;550.06;;;;;;;;;;;;;-54
2022/03/15 16:12:18;;;;;;;609.07;554.73;;;;;;;;;;;;;-52
2022/03/15 16:15:16;;;;;;;606.37;552.01;;;;;;;;;;;;;-56
2022/03/15 16:18:15;;;;;;;606.99;552.51;;;;;;;;;;;;;-51
2022/03/15 16:21:16;;;;;;;615.15;560.47;;;;;;;;;;;;;-61
2022/03/15 16:24:15;;;;;;;613.63;559.14;;;;;;;;;;;;;-63
2022/03/15 16:27:16;;;;;;;613.03;558.29;;;;;;;;;;;;;-60
2022/03/15 16:30:15;;;;;;;611.47;556.98;;;;;;;;;;;;;-62
2022/03/15 16:33:15;;;;;;;611.32;556.95;;;;;;;;;;;;;-63
2022/03/15 16:36:16;;;;;;;606.22;551.83;;;;;;;;;;;;;-63
2022/03/15 16:39:16;;;;;;;608.81;554.23;;;;;;;;;;;;;-52
2022/03/15 16:42:15;;;;;;;611.21;556.81;;;;;;;;;;;;;-60
2022/03/15 16:45:15;;;;;;;613.43;558.99;;;;;;;;;;;;;-58
2022/03/15 16:48:15;;;;;;;616.74;562.19;;;;;;;;;;;;;-59
2022/03/15 16:51:15;;;;;;;612.31;557.85;;;;;;;;;;;;;-58
2022/03/15 16:54:15;;;;;;;620.35;565.60;;;;;;;;;;;;;-60
2022/03/15 16:57:15;;;;;;;617.13;562.61;;;;;;;;;;;;;-60
2022/03/15 17:00:15;;;;;;;616.55;561.81;;;;;;;;;;;;;-51
2022/03/15 17:03:15;;;;;;;616.07;561.67;;;;;;;;;;;;;-60
2022/03/15 17:06:15;;;;;;;618.14;563.57;;;;;;;;;;;;;-66
2022/03/15 17:09:15;;;;;;;618.45;563.78;;;;;;;;;;;;;-51
2022/03/15 17:12:15;;;;;;;614.23;559.83;;;;;;;;;;;;;-52
2022/03/15 17:15:16;;;;;;;613.12;558.59;;;;;;;;;;;;;-51
2022/03/15 17:18:15;;;;;;;614.46;560.05;;;;;;;;;;;;;-52
2022/03/15 17:21:15;;;;;;;614.99;560.37;;;;;;;;;;;;;-52
2022/03/15 17:24:15;;;;;;;618.11;563.44;;;;;;;;;;;;;-59
2022/03/15 17:27:15;;;;;;;621.44;566.77;;;;;;;;;;;;;-56
2022/03/15 17:30:16;;;;;;;621.01;566.03;;;;;;;;;;;;;-59
2022/03/15 17:33:15;;;;;;;619.47;564.66;;;;;;;;;;;;;-51
2022/03/15 17:36:15;;;;;;;621.41;566.68;;;;;;;;;;;;;-53
2022/03/15 17:39:15;;;;;;;617.29;562.63;;;;;;;;;;;;;-53
2022/03/15 17:42:15;;;;;;;621.28;566.67;;;;;;;;;;;;;-54
2022/03/15 17:45:17;;;;;;;616.16;561.61;;;;;;;;;;;;;-58
2022/03/15 17:48:18;;;;;;;618.35;563.71;;;;;;;;;;;;;-59
2022/03/15 17:51:22;;;;;;;615.74;561.31;;;;;;;;;;;;;-61
2022/03/15 17:54:25;;;;;;;617.51;562.97;;;;;;;;;;;;;-57
2022/03/15 17:57:19;;;;;;;618.90;564.17;;;;;;;;;;;;;-54
2022/03/15 18:00:16;;;;;;;619.04;564.21;;;;;;;;;;;;;-64
2022/03/15 18:03:36;;;;;;;613.53;558.95;;;;;;;;;;;;;-51
2022/03/15 18:08:15;;;;;;;603.38;549.47;;;;;;;;;;;;;-55
2022/03/15 18:11:15;;;;;;;611.73;557.34;;;;;;;;;;;;;-53
2022/03/15 18:14:16;;;;;;;609.83;555.65;;;;;;;;;;;;;-53
2022/03/15 18:17:15;;;;;;;616.49;561.97;;;;;;;;;;;;;-52
2022/03/15 18:20:15;;;;;;;617.33;562.91;;;;;;;;;;;;;-56
2022/03/15 18:23:16;;;;;;;616.09;561.65;;;;;;;;;;;;;-55
2022/03/15 18:26:18;;;;;;;619.21;564.65;;;;;;;;;;;;;-60
2022/03/15 18:29:21;;;;;;;621.28;566.61;;;;;;;;;;;;;-50
2022/03/15 18:32:15;;;;;;;619.61;564.92;;;;;;;;;;;;;-48
2022/03/15 18:35:16;;;;;;;617.46;562.71;;;;;;;;;;;;;-47
2022/03/15 18:38:15;;;;;;;621.23;566.26;;;;;;;;;;;;;-60
2022/03/15 18:41:15;;;;;;;619.26;564.64;;;;;;;;;;;;;-59
2022/03/15 18:44:15;;;;;;;622.53;567.64;;;;;;;;;;;;;-47
2022/03/15 18:47:16;;;;;;;622.97;568.25;;;;;;;;;;;;;-50
2022/03/15 18:50:15;;;;;;;621.48;566.99;;;;;;;;;;;;;-51
2022/03/15 18:53:15;;;;;;;622.04;567.23;;;;;;;;;;;;;-52
2022/03/15 18:56:15;;;;;;;621.66;566.99;;;;;;;;;;;;;-50
2022/03/15 18:59:15;;;;;;;623.11;568.22;;;;;;;;;;;;;-50
2022/03/15 19:02:15;;;;;;;623.69;568.72;;;;;;;;;;;;;-51
2022/03/15 19:05:16;;;;;;;624.07;568.99;;;;;;;;;;;;;-49
2022/03/15 19:08:16;;;;;;;627.91;572.65;;;;;;;;;;;;;-48
2022/03/15 19:11:15;;;;;;;625.03;570.05;;;;;;;;;;;;;-47
2022/03/15 19:14:18;;;;;;;624.59;569.24;;;;;;;;;;;;;-47
2022/03/15 19:17:15;;;;;;;620.69;566.00;;;;;;;;;;;;;-52
2022/03/15 19:20:15;;;;;;;620.09;565.53;;;;;;;;;;;;;-60
2022/03/15 19:23:16;;;;;;;619.59;564.97;;;;;;;;;;;;;-61
2022/03/15 19:26:18;;;;;;;617.45;562.92;;;;;;;;;;;;;-60
2022/03/15 19:29:17;;;;;;;618.27;563.73;;;;;;;;;;;;;-62
2022/03/15 19:32:19;;;;;;;622.14;567.49;;;;;;;;;;;;;-60
2022/03/15 19:35:16;;;;;;;622.91;568.15;;;;;;;;;;;;;-63
2022/03/15 19:38:16;;;;;;;624.91;570.07;;;;;;;;;;;;;-52
2022/03/15 19:41:15;;;;;;;619.58;565.05;;;;;;;;;;;;;-63
2022/03/15 19:44:15;;;;;;;623.85;568.93;;;;;;;;;;;;;-51
2022/03/15 19:47:15;;;;;;;621.78;566.99;;;;;;;;;;;;;-52
2022/03/15 19:50:15;;;;;;;624.51;569.67;;;;;;;;;;;;;-61
2022/03/15 19:53:15;;;;;;;624.33;569.45;;;;;;;;;;;;;-60
2022/03/15 19:56:16;;;;;;;619.64;564.72;;;;;;;;;;;;;-51
2022/03/15 19:59:35;;;;;;;623.73;567.95;;;;;;;;;;;;;-51
2022/03/15 20:02:16;;;;;;;624.13;569.25;;;;;;;;;;;;;-61
2022/03/15 20:05:17;;;;;;;622.73;567.80;;;;;;;;;;;;;-62
2022/03/15 20:08:17;;;;;;;621.58;566.69;;;;;;;;;;;;;-60
2022/03/15 20:11:18;;;;;;;618.70;564.01;;;;;;;;;;;;;-53
2022/03/15 20:14:16;;;;;;;619.89;565.07;;;;;;;;;;;;;-53
2022/03/15 20:17:15;;;;;;;620.33;565.61;;;;;;;;;;;;;-50
2022/03/15 20:20:21;;;;;;;622.64;567.79;;;;;;;;;;;;;-54
2022/03/15 20:23:19;;;;;;;617.19;562.59;;;;;;;;;;;;;-61
2022/03/15 20:26:16;;;;;;;615.61;561.00;;;;;;;;;;;;;-52
2022/03/15 20:29:15;;;;;;;616.97;562.37;;;;;;;;;;;;;-58
2022/03/15 20:32:17;;;;;;;612.65;558.17;;;;;;;;;;;;;-54
2022/03/15 20:35:18;;;;;;;615.19;560.61;;;;;;;;;;;;;-56
2022/03/15 20:38:16;;;;;;;612.71;558.33;;;;;;;;;;;;;-58
2022/03/15 20:41:22;;;;;;;612.61;558.19;;;;;;;;;;;;;-58
2022/03/15 20:44:21;;;;;;;601.05;546.96;;;;;;;;;;;;;-59
2022/03/15 20:47:15;;;;;;;601.24;547.08;;;;;;;;;;;;;-59
2022/03/15 20:50:15;;;;;;;603.11;549.10;;;;;;;;;;;;;-54
2022/03/15 20:53:16;;;;;;;604.25;550.19;;;;;;;;;;;;;-54
2022/03/15 20:56:17;;;;;;;607.34;553.22;;;;;;;;;;;;;-58
2022/03/15 20:59:16;;;;;;;609.23;554.84;;;;;;;;;;;;;-58
2022/03/15 21:02:16;;;;;;;605.98;551.85;;;;;;;;;;;;;-54
2022/03/15 21:05:17;;;;;;;603.39;549.35;;;;;;;;;;;;;-55
2022/03/15 21:08:16;;;;;;;595.29;541.62;;;;;;;;;;;;;-54
2022/03/15 21:11:15;;;;;;;601.64;547.72;;;;;;;;;;;;;-59